sensor_id;sensor_type;location;lat;lon;timestamp;temperature;humidity
10245;DHT22;5167;52.164;10.530;2023-01-25T00:01:59;3.50;41.80
10245;DHT22;5167;52.164;10.530;2023-01-25T00:04:25;3.50;43.20
10245;DHT22;5167;52.164;10.530;2023-01-25T00:06:51;3.50;43.70
10245;DHT22;5167;52.164;10.530;2023-01-25T00:09:17;3.50;43.70
10245;DHT22;5167;52.164;10.530;2023-01-25T00:11:43;3.50;43.90
10245;DHT22;5167;52.164;10.530;2023-01-25T00:14:10;3.50;43.90
10245;DHT22;5167;52.164;10.530;2023-01-25T00:16:36;3.40;43.70
10245;DHT22;5167;52.164;10.530;2023-01-25T00:19:03;3.40;44.30
10245;DHT22;5167;52.164;10.530;2023-01-25T00:21:28;3.40;44.50
10245;DHT22;5167;52.164;10.530;2023-01-25T00:23:54;3.40;44.40
10245;DHT22;5167;52.164;10.530;2023-01-25T00:26:20;3.50;44.70
10245;DHT22;5167;52.164;10.530;2023-01-25T00:28:53;3.50;44.90
10245;DHT22;5167;52.164;10.530;2023-01-25T00:37:02;3.50;44.70
10245;DHT22;5167;52.164;10.530;2023-01-25T00:39:34;3.30;45.50
10245;DHT22;5167;52.164;10.530;2023-01-25T00:42:00;3.40;46.10
10245;DHT22;5167;52.164;10.530;2023-01-25T00:44:25;3.40;45.60
10245;DHT22;5167;52.164;10.530;2023-01-25T00:46:51;3.40;46.30
10245;DHT22;5167;52.164;10.530;2023-01-25T00:49:22;3.40;46.00
10245;DHT22;5167;52.164;10.530;2023-01-25T00:51:48;3.30;45.20
10245;DHT22;5167;52.164;10.530;2023-01-25T00:54:14;3.30;45.70
10245;DHT22;5167;52.164;10.530;2023-01-25T00:56:39;3.30;46.10
10245;DHT22;5167;52.164;10.530;2023-01-25T00:59:05;3.40;45.60
10245;DHT22;5167;52.164;10.530;2023-01-25T01:01:31;3.40;46.80
10245;DHT22;5167;52.164;10.530;2023-01-25T01:03:56;3.40;46.60
10245;DHT22;5167;52.164;10.530;2023-01-25T01:06:22;3.40;45.30
10245;DHT22;5167;52.164;10.530;2023-01-25T01:08:47;3.50;47.20
10245;DHT22;5167;52.164;10.530;2023-01-25T01:11:13;3.30;47.10
10245;DHT22;5167;52.164;10.530;2023-01-25T01:13:39;3.40;46.70
10245;DHT22;5167;52.164;10.530;2023-01-25T01:16:07;3.40;47.90
10245;DHT22;5167;52.164;10.530;2023-01-25T01:18:38;3.40;48.30
10245;DHT22;5167;52.164;10.530;2023-01-25T01:21:04;3.30;48.20
10245;DHT22;5167;52.164;10.530;2023-01-25T01:23:31;3.30;48.30
10245;DHT22;5167;52.164;10.530;2023-01-25T01:26:01;3.40;48.00
10245;DHT22;5167;52.164;10.530;2023-01-25T01:28:31;3.40;48.80
10245;DHT22;5167;52.164;10.530;2023-01-25T01:31:05;3.40;49.10
10245;DHT22;5167;52.164;10.530;2023-01-25T01:33:31;3.40;49.20
10245;DHT22;5167;52.164;10.530;2023-01-25T01:35:57;3.50;49.30
10245;DHT22;5167;52.164;10.530;2023-01-25T01:38:22;3.50;49.00
10245;DHT22;5167;52.164;10.530;2023-01-25T01:40:49;3.50;48.50
10245;DHT22;5167;52.164;10.530;2023-01-25T01:43:20;3.40;48.30
10245;DHT22;5167;52.164;10.530;2023-01-25T01:45:55;3.40;49.20
10245;DHT22;5167;52.164;10.530;2023-01-25T01:48:40;3.40;49.20
10245;DHT22;5167;52.164;10.530;2023-01-25T01:54:30;3.30;49.20
10245;DHT22;5167;52.164;10.530;2023-01-25T01:57:11;3.30;49.20
10245;DHT22;5167;52.164;10.530;2023-01-25T02:00:05;3.20;49.90
10245;DHT22;5167;52.164;10.530;2023-01-25T02:02:27;3.20;50.80
10245;DHT22;5167;52.164;10.530;2023-01-25T02:04:56;3.20;50.50
10245;DHT22;5167;52.164;10.530;2023-01-25T02:07:31;3.20;50.70
10245;DHT22;5167;52.164;10.530;2023-01-25T02:09:58;3.20;50.90
10245;DHT22;5167;52.164;10.530;2023-01-25T02:12:24;3.30;51.10
10245;DHT22;5167;52.164;10.530;2023-01-25T02:14:51;3.20;51.00
10245;DHT22;5167;52.164;10.530;2023-01-25T02:17:28;3.20;51.40
10245;DHT22;5167;52.164;10.530;2023-01-25T02:23:23;3.20;51.90
10245;DHT22;5167;52.164;10.530;2023-01-25T02:25:51;3.30;51.40
10245;DHT22;5167;52.164;10.530;2023-01-25T02:28:39;3.20;51.30
10245;DHT22;5167;52.164;10.530;2023-01-25T02:31:07;3.20;52.30
10245;DHT22;5167;52.164;10.530;2023-01-25T02:33:32;3.20;52.00
10245;DHT22;5167;52.164;10.530;2023-01-25T02:38:42;3.20;51.80
10245;DHT22;5167;52.164;10.530;2023-01-25T02:41:41;3.20;53.00
10245;DHT22;5167;52.164;10.530;2023-01-25T02:44:10;3.10;52.90
10245;DHT22;5167;52.164;10.530;2023-01-25T02:46:38;3.10;52.40
10245;DHT22;5167;52.164;10.530;2023-01-25T02:49:05;3.10;52.00
10245;DHT22;5167;52.164;10.530;2023-01-25T02:51:33;3.10;51.90
10245;DHT22;5167;52.164;10.530;2023-01-25T02:54:00;3.10;52.50
10245;DHT22;5167;52.164;10.530;2023-01-25T02:56:26;3.10;51.60
10245;DHT22;5167;52.164;10.530;2023-01-25T02:58:52;3.00;52.10
10245;DHT22;5167;52.164;10.530;2023-01-25T03:01:17;3.00;52.10
10245;DHT22;5167;52.164;10.530;2023-01-25T03:03:43;3.00;52.80
10245;DHT22;5167;52.164;10.530;2023-01-25T03:06:09;3.00;52.80
10245;DHT22;5167;52.164;10.530;2023-01-25T03:08:35;3.10;52.60
10245;DHT22;5167;52.164;10.530;2023-01-25T03:11:02;3.00;52.30
10245;DHT22;5167;52.164;10.530;2023-01-25T03:13:28;3.00;53.10
10245;DHT22;5167;52.164;10.530;2023-01-25T03:15:59;3.00;54.30
10245;DHT22;5167;52.164;10.530;2023-01-25T03:18:25;3.10;53.40
10245;DHT22;5167;52.164;10.530;2023-01-25T03:20:51;3.00;53.80
10245;DHT22;5167;52.164;10.530;2023-01-25T03:23:16;3.00;53.40
10245;DHT22;5167;52.164;10.530;2023-01-25T03:25:42;3.00;53.30
10245;DHT22;5167;52.164;10.530;2023-01-25T03:28:07;3.00;53.50
10245;DHT22;5167;52.164;10.530;2023-01-25T03:30:34;3.10;54.00
10245;DHT22;5167;52.164;10.530;2023-01-25T03:32:59;3.10;53.70
10245;DHT22;5167;52.164;10.530;2023-01-25T03:35:25;3.10;53.20
10245;DHT22;5167;52.164;10.530;2023-01-25T03:37:51;3.10;53.00
10245;DHT22;5167;52.164;10.530;2023-01-25T03:40:16;3.00;53.30
10245;DHT22;5167;52.164;10.530;2023-01-25T03:42:42;3.00;53.30
10245;DHT22;5167;52.164;10.530;2023-01-25T03:45:07;3.00;53.10
10245;DHT22;5167;52.164;10.530;2023-01-25T03:47:33;3.00;52.80
10245;DHT22;5167;52.164;10.530;2023-01-25T03:49:58;3.10;53.90
10245;DHT22;5167;52.164;10.530;2023-01-25T03:52:24;3.00;53.90
10245;DHT22;5167;52.164;10.530;2023-01-25T03:54:51;3.00;53.30
10245;DHT22;5167;52.164;10.530;2023-01-25T03:57:16;3.00;53.60
10245;DHT22;5167;52.164;10.530;2023-01-25T03:59:42;3.10;53.40
10245;DHT22;5167;52.164;10.530;2023-01-25T04:02:07;3.00;53.70
10245;DHT22;5167;52.164;10.530;2023-01-25T04:04:33;3.10;54.50
10245;DHT22;5167;52.164;10.530;2023-01-25T04:06:58;3.00;54.70
10245;DHT22;5167;52.164;10.530;2023-01-25T04:09:23;2.90;53.50
10245;DHT22;5167;52.164;10.530;2023-01-25T04:11:50;3.00;54.00
10245;DHT22;5167;52.164;10.530;2023-01-25T04:14:15;3.00;53.90
10245;DHT22;5167;52.164;10.530;2023-01-25T04:16:41;2.90;54.10
10245;DHT22;5167;52.164;10.530;2023-01-25T04:19:07;2.90;54.70
10245;DHT22;5167;52.164;10.530;2023-01-25T04:21:32;2.80;54.10
10245;DHT22;5167;52.164;10.530;2023-01-25T04:23:58;2.80;54.30
10245;DHT22;5167;52.164;10.530;2023-01-25T04:26:23;2.70;54.50
10245;DHT22;5167;52.164;10.530;2023-01-25T04:28:49;2.80;54.40
10245;DHT22;5167;52.164;10.530;2023-01-25T04:31:14;2.70;55.30
10245;DHT22;5167;52.164;10.530;2023-01-25T04:33:40;2.70;55.10
10245;DHT22;5167;52.164;10.530;2023-01-25T04:36:06;2.70;55.50
10245;DHT22;5167;52.164;10.530;2023-01-25T04:38:31;2.70;55.70
10245;DHT22;5167;52.164;10.530;2023-01-25T04:40:57;2.70;56.00
10245;DHT22;5167;52.164;10.530;2023-01-25T04:43:22;2.70;56.30
10245;DHT22;5167;52.164;10.530;2023-01-25T04:45:49;2.70;56.30
10245;DHT22;5167;52.164;10.530;2023-01-25T04:48:14;2.70;56.20
10245;DHT22;5167;52.164;10.530;2023-01-25T04:50:41;2.70;56.60
10245;DHT22;5167;52.164;10.530;2023-01-25T04:53:07;2.70;56.20
10245;DHT22;5167;52.164;10.530;2023-01-25T04:55:33;2.80;55.90
10245;DHT22;5167;52.164;10.530;2023-01-25T04:58:00;2.80;56.00
10245;DHT22;5167;52.164;10.530;2023-01-25T05:00:27;2.80;56.00
10245;DHT22;5167;52.164;10.530;2023-01-25T05:02:53;2.60;56.00
10245;DHT22;5167;52.164;10.530;2023-01-25T05:05:18;2.70;56.00
10245;DHT22;5167;52.164;10.530;2023-01-25T05:07:44;2.70;56.00
10245;DHT22;5167;52.164;10.530;2023-01-25T05:10:10;2.70;56.00
10245;DHT22;5167;52.164;10.530;2023-01-25T05:12:36;2.70;55.90
10245;DHT22;5167;52.164;10.530;2023-01-25T05:15:01;2.70;56.30
10245;DHT22;5167;52.164;10.530;2023-01-25T05:17:27;2.70;57.30
10245;DHT22;5167;52.164;10.530;2023-01-25T05:19:52;2.70;57.10
10245;DHT22;5167;52.164;10.530;2023-01-25T05:22:18;2.70;56.70
10245;DHT22;5167;52.164;10.530;2023-01-25T05:24:46;2.70;57.00
10245;DHT22;5167;52.164;10.530;2023-01-25T05:27:13;2.70;57.80
10245;DHT22;5167;52.164;10.530;2023-01-25T05:29:43;2.70;57.00
10245;DHT22;5167;52.164;10.530;2023-01-25T05:32:10;2.70;57.40
10245;DHT22;5167;52.164;10.530;2023-01-25T05:34:36;2.80;57.30
10245;DHT22;5167;52.164;10.530;2023-01-25T05:37:04;2.80;56.50
10245;DHT22;5167;52.164;10.530;2023-01-25T05:39:29;2.70;55.70
10245;DHT22;5167;52.164;10.530;2023-01-25T05:41:55;2.60;55.90
10245;DHT22;5167;52.164;10.530;2023-01-25T05:44:21;2.70;56.70
10245;DHT22;5167;52.164;10.530;2023-01-25T05:46:46;2.70;57.30
10245;DHT22;5167;52.164;10.530;2023-01-25T05:49:12;2.70;57.30
10245;DHT22;5167;52.164;10.530;2023-01-25T05:51:38;2.70;57.40
10245;DHT22;5167;52.164;10.530;2023-01-25T05:54:04;2.70;56.90
10245;DHT22;5167;52.164;10.530;2023-01-25T05:56:31;2.70;57.00
10245;DHT22;5167;52.164;10.530;2023-01-25T05:58:58;2.60;56.90
10245;DHT22;5167;52.164;10.530;2023-01-25T06:01:24;2.60;57.40
10245;DHT22;5167;52.164;10.530;2023-01-25T06:03:50;2.60;57.80
10245;DHT22;5167;52.164;10.530;2023-01-25T06:06:16;2.60;58.30
10245;DHT22;5167;52.164;10.530;2023-01-25T06:08:42;2.60;57.80
10245;DHT22;5167;52.164;10.530;2023-01-25T06:11:09;2.60;58.30
10245;DHT22;5167;52.164;10.530;2023-01-25T06:13:35;2.70;58.60
10245;DHT22;5167;52.164;10.530;2023-01-25T06:16:00;2.70;58.80
10245;DHT22;5167;52.164;10.530;2023-01-25T06:18:27;2.70;58.50
10245;DHT22;5167;52.164;10.530;2023-01-25T06:20:55;2.80;58.00
10245;DHT22;5167;52.164;10.530;2023-01-25T06:23:21;2.80;57.60
10245;DHT22;5167;52.164;10.530;2023-01-25T06:25:47;2.80;57.30
10245;DHT22;5167;52.164;10.530;2023-01-25T06:28:12;2.90;56.20
10245;DHT22;5167;52.164;10.530;2023-01-25T06:30:41;2.70;56.90
10245;DHT22;5167;52.164;10.530;2023-01-25T06:33:07;2.60;57.30
10245;DHT22;5167;52.164;10.530;2023-01-25T06:35:33;2.70;57.20
10245;DHT22;5167;52.164;10.530;2023-01-25T06:37:59;2.70;57.50
10245;DHT22;5167;52.164;10.530;2023-01-25T06:40:26;2.60;57.90
10245;DHT22;5167;52.164;10.530;2023-01-25T06:42:51;2.60;57.50
10245;DHT22;5167;52.164;10.530;2023-01-25T06:45:17;2.60;58.10
10245;DHT22;5167;52.164;10.530;2023-01-25T06:47:42;2.60;58.00
10245;DHT22;5167;52.164;10.530;2023-01-25T06:50:08;2.60;58.10
10245;DHT22;5167;52.164;10.530;2023-01-25T06:52:34;2.70;58.30
10245;DHT22;5167;52.164;10.530;2023-01-25T06:55:04;2.60;58.20
10245;DHT22;5167;52.164;10.530;2023-01-25T06:57:31;2.70;58.30
10245;DHT22;5167;52.164;10.530;2023-01-25T06:59:56;2.70;58.40
10245;DHT22;5167;52.164;10.530;2023-01-25T07:02:22;2.70;56.80
10245;DHT22;5167;52.164;10.530;2023-01-25T07:04:47;2.70;57.60
10245;DHT22;5167;52.164;10.530;2023-01-25T07:07:13;2.70;56.90
10245;DHT22;5167;52.164;10.530;2023-01-25T07:09:38;2.80;56.70
10245;DHT22;5167;52.164;10.530;2023-01-25T07:12:05;2.70;56.80
10245;DHT22;5167;52.164;10.530;2023-01-25T07:14:34;2.70;55.90
10245;DHT22;5167;52.164;10.530;2023-01-25T07:16:59;2.70;56.00
10245;DHT22;5167;52.164;10.530;2023-01-25T07:19:25;2.60;56.20
10245;DHT22;5167;52.164;10.530;2023-01-25T07:21:51;2.60;56.30
10245;DHT22;5167;52.164;10.530;2023-01-25T07:24:18;2.60;56.90
10245;DHT22;5167;52.164;10.530;2023-01-25T07:53:42;2.50;56.60
10245;DHT22;5167;52.164;10.530;2023-01-25T07:56:10;2.60;56.30
10245;DHT22;5167;52.164;10.530;2023-01-25T07:58:36;2.60;56.60
10245;DHT22;5167;52.164;10.530;2023-01-25T08:01:09;2.50;56.90
10245;DHT22;5167;52.164;10.530;2023-01-25T08:03:35;2.60;56.20
10245;DHT22;5167;52.164;10.530;2023-01-25T08:06:00;2.60;56.40
10245;DHT22;5167;52.164;10.530;2023-01-25T08:08:26;2.60;56.10
10245;DHT22;5167;52.164;10.530;2023-01-25T08:10:52;2.70;56.40
10245;DHT22;5167;52.164;10.530;2023-01-25T08:13:17;2.60;56.50
10245;DHT22;5167;52.164;10.530;2023-01-25T08:15:43;2.70;56.90
10245;DHT22;5167;52.164;10.530;2023-01-25T08:18:08;2.60;56.00
10245;DHT22;5167;52.164;10.530;2023-01-25T08:20:33;2.60;55.60
10245;DHT22;5167;52.164;10.530;2023-01-25T08:22:59;2.60;55.10
10245;DHT22;5167;52.164;10.530;2023-01-25T08:25:24;2.50;55.80
10245;DHT22;5167;52.164;10.530;2023-01-25T08:27:50;2.50;55.30
10245;DHT22;5167;52.164;10.530;2023-01-25T08:30:17;2.50;55.40
10245;DHT22;5167;52.164;10.530;2023-01-25T08:32:42;2.60;55.80
10245;DHT22;5167;52.164;10.530;2023-01-25T08:35:08;2.60;55.90
10245;DHT22;5167;52.164;10.530;2023-01-25T08:37:34;2.70;55.70
10245;DHT22;5167;52.164;10.530;2023-01-25T08:39:59;2.60;55.50
10245;DHT22;5167;52.164;10.530;2023-01-25T08:42:25;2.60;55.50
10245;DHT22;5167;52.164;10.530;2023-01-25T08:44:50;2.60;54.60
10245;DHT22;5167;52.164;10.530;2023-01-25T08:47:16;2.60;54.90
10245;DHT22;5167;52.164;10.530;2023-01-25T08:49:41;2.60;54.90
10245;DHT22;5167;52.164;10.530;2023-01-25T08:52:06;2.50;55.50
10245;DHT22;5167;52.164;10.530;2023-01-25T08:54:32;2.60;56.00
10245;DHT22;5167;52.164;10.530;2023-01-25T08:56:57;2.60;55.90
10245;DHT22;5167;52.164;10.530;2023-01-25T08:59:23;2.60;55.30
10245;DHT22;5167;52.164;10.530;2023-01-25T09:01:49;2.60;55.90
10245;DHT22;5167;52.164;10.530;2023-01-25T09:04:14;2.60;55.00
10245;DHT22;5167;52.164;10.530;2023-01-25T09:06:40;2.60;54.70
10245;DHT22;5167;52.164;10.530;2023-01-25T09:09:05;2.60;53.10
10245;DHT22;5167;52.164;10.530;2023-01-25T09:11:33;2.40;53.80
10245;DHT22;5167;52.164;10.530;2023-01-25T09:13:59;2.50;54.90
10245;DHT22;5167;52.164;10.530;2023-01-25T09:16:24;2.50;55.00
10245;DHT22;5167;52.164;10.530;2023-01-25T09:18:54;2.40;54.90
10245;DHT22;5167;52.164;10.530;2023-01-25T09:21:20;2.50;54.90
10245;DHT22;5167;52.164;10.530;2023-01-25T09:23:53;2.50;54.90
10245;DHT22;5167;52.164;10.530;2023-01-25T09:26:19;2.50;55.40
10245;DHT22;5167;52.164;10.530;2023-01-25T09:28:52;2.50;55.70
10245;DHT22;5167;52.164;10.530;2023-01-25T09:31:18;2.40;56.00
10245;DHT22;5167;52.164;10.530;2023-01-25T09:33:44;2.30;55.80
10245;DHT22;5167;52.164;10.530;2023-01-25T09:36:10;2.30;56.20
10245;DHT22;5167;52.164;10.530;2023-01-25T09:38:35;2.20;57.00
10245;DHT22;5167;52.164;10.530;2023-01-25T09:44:23;2.30;57.80
10245;DHT22;5167;52.164;10.530;2023-01-25T09:47:00;2.30;57.40
10245;DHT22;5167;52.164;10.530;2023-01-25T09:49:59;2.30;56.80
10245;DHT22;5167;52.164;10.530;2023-01-25T09:52:56;2.30;57.60
10245;DHT22;5167;52.164;10.530;2023-01-25T09:55:26;2.30;58.10
10245;DHT22;5167;52.164;10.530;2023-01-25T09:57:53;2.30;57.60
10245;DHT22;5167;52.164;10.530;2023-01-25T10:00:25;2.30;57.90
10245;DHT22;5167;52.164;10.530;2023-01-25T10:03:10;2.40;57.40
10245;DHT22;5167;52.164;10.530;2023-01-25T10:05:42;2.40;57.40
10245;DHT22;5167;52.164;10.530;2023-01-25T10:08:23;2.40;58.00
10245;DHT22;5167;52.164;10.530;2023-01-25T10:10:57;2.50;57.90
10245;DHT22;5167;52.164;10.530;2023-01-25T10:13:24;2.50;57.80
10245;DHT22;5167;52.164;10.530;2023-01-25T10:15:54;2.40;57.90
10245;DHT22;5167;52.164;10.530;2023-01-25T10:18:32;2.50;58.00
10245;DHT22;5167;52.164;10.530;2023-01-25T10:21:19;2.50;57.50
10245;DHT22;5167;52.164;10.530;2023-01-25T10:26:42;2.50;58.40
10245;DHT22;5167;52.164;10.530;2023-01-25T10:31:46;2.60;58.40
10245;DHT22;5167;52.164;10.530;2023-01-25T10:34:21;2.60;58.50
10245;DHT22;5167;52.164;10.530;2023-01-25T10:37:03;2.60;57.70
10245;DHT22;5167;52.164;10.530;2023-01-25T10:39:31;2.60;56.80
10245;DHT22;5167;52.164;10.530;2023-01-25T10:42:10;2.60;57.70
10245;DHT22;5167;52.164;10.530;2023-01-25T10:44:36;2.60;58.00
10245;DHT22;5167;52.164;10.530;2023-01-25T10:47:28;2.60;57.30
10245;DHT22;5167;52.164;10.530;2023-01-25T10:49:57;2.50;58.00
10245;DHT22;5167;52.164;10.530;2023-01-25T10:52:28;2.50;58.60
10245;DHT22;5167;52.164;10.530;2023-01-25T10:55:19;2.50;59.80
10245;DHT22;5167;52.164;10.530;2023-01-25T10:57:49;2.60;58.30
10245;DHT22;5167;52.164;10.530;2023-01-25T11:00:39;2.60;57.70
10245;DHT22;5167;52.164;10.530;2023-01-25T11:03:05;2.50;58.20
10245;DHT22;5167;52.164;10.530;2023-01-25T11:05:37;2.50;58.60
10245;DHT22;5167;52.164;10.530;2023-01-25T11:08:22;2.60;58.50
10245;DHT22;5167;52.164;10.530;2023-01-25T11:10:48;2.60;58.80
10245;DHT22;5167;52.164;10.530;2023-01-25T11:15:41;2.70;58.50
10245;DHT22;5167;52.164;10.530;2023-01-25T11:18:26;2.60;58.90
10245;DHT22;5167;52.164;10.530;2023-01-25T11:23:57;2.70;57.90
10245;DHT22;5167;52.164;10.530;2023-01-25T11:26:23;2.70;57.20
10245;DHT22;5167;52.164;10.530;2023-01-25T11:28:48;2.60;57.70
10245;DHT22;5167;52.164;10.530;2023-01-25T11:31:21;2.70;57.70
10245;DHT22;5167;52.164;10.530;2023-01-25T11:33:47;2.60;57.30
10245;DHT22;5167;52.164;10.530;2023-01-25T11:36:24;2.70;57.30
10245;DHT22;5167;52.164;10.530;2023-01-25T11:39:20;2.60;57.90
10245;DHT22;5167;52.164;10.530;2023-01-25T11:44:57;2.80;57.10
10245;DHT22;5167;52.164;10.530;2023-01-25T11:47:41;2.80;57.70
10245;DHT22;5167;52.164;10.530;2023-01-25T11:50:54;2.70;57.40
10245;DHT22;5167;52.164;10.530;2023-01-25T11:53:39;2.70;56.80
10245;DHT22;5167;52.164;10.530;2023-01-25T11:56:24;2.70;57.30
10245;DHT22;5167;52.164;10.530;2023-01-25T11:59:00;2.70;57.30
10245;DHT22;5167;52.164;10.530;2023-01-25T12:04:06;2.70;58.00
10245;DHT22;5167;52.164;10.530;2023-01-25T12:10:18;2.80;57.10
10245;DHT22;5167;52.164;10.530;2023-01-25T12:15:38;2.80;58.30
10245;DHT22;5167;52.164;10.530;2023-01-25T12:27:20;2.90;58.00
10245;DHT22;5167;52.164;10.530;2023-01-25T12:30:20;2.90;57.40
10245;DHT22;5167;52.164;10.530;2023-01-25T12:35:29;2.90;57.30
10245;DHT22;5167;52.164;10.530;2023-01-25T12:38:03;2.80;57.30
10245;DHT22;5167;52.164;10.530;2023-01-25T12:43:01;2.80;57.30
10245;DHT22;5167;52.164;10.530;2023-01-25T12:45:35;2.80;57.50
10245;DHT22;5167;52.164;10.530;2023-01-25T12:48:32;2.90;57.90
10245;DHT22;5167;52.164;10.530;2023-01-25T12:51:00;2.90;57.60
10245;DHT22;5167;52.164;10.530;2023-01-25T12:53:35;2.90;56.80
10245;DHT22;5167;52.164;10.530;2023-01-25T12:56:05;2.90;56.80
10245;DHT22;5167;52.164;10.530;2023-01-25T12:58:42;2.90;56.20
10245;DHT22;5167;52.164;10.530;2023-01-25T13:04:42;2.90;56.50
10245;DHT22;5167;52.164;10.530;2023-01-25T13:09:58;2.80;56.80
10245;DHT22;5167;52.164;10.530;2023-01-25T13:12:25;2.80;56.70
10245;DHT22;5167;52.164;10.530;2023-01-25T13:14:51;2.90;56.90
10245;DHT22;5167;52.164;10.530;2023-01-25T13:17:30;2.90;56.70
10245;DHT22;5167;52.164;10.530;2023-01-25T13:19:57;2.90;56.20
10245;DHT22;5167;52.164;10.530;2023-01-25T13:27:41;2.80;57.10
10245;DHT22;5167;52.164;10.530;2023-01-25T13:30:30;2.70;57.00
10245;DHT22;5167;52.164;10.530;2023-01-25T13:33:01;2.80;57.00
10245;DHT22;5167;52.164;10.530;2023-01-25T13:35:36;2.80;57.20
10245;DHT22;5167;52.164;10.530;2023-01-25T13:40:41;2.70;56.80
10245;DHT22;5167;52.164;10.530;2023-01-25T13:43:17;2.70;56.70
10245;DHT22;5167;52.164;10.530;2023-01-25T13:45:45;2.70;56.70
10245;DHT22;5167;52.164;10.530;2023-01-25T13:48:18;2.70;56.70
10245;DHT22;5167;52.164;10.530;2023-01-25T13:50:50;2.80;56.80
10245;DHT22;5167;52.164;10.530;2023-01-25T13:53:22;2.80;57.30
10245;DHT22;5167;52.164;10.530;2023-01-25T13:55:55;2.80;55.80
10245;DHT22;5167;52.164;10.530;2023-01-25T13:58:32;2.80;56.00
10245;DHT22;5167;52.164;10.530;2023-01-25T14:01:06;2.80;57.40
10245;DHT22;5167;52.164;10.530;2023-01-25T14:03:42;2.80;57.30
10245;DHT22;5167;52.164;10.530;2023-01-25T14:06:16;2.80;56.60
10245;DHT22;5167;52.164;10.530;2023-01-25T14:08:43;2.90;56.20
10245;DHT22;5167;52.164;10.530;2023-01-25T14:11:09;2.80;55.60
10245;DHT22;5167;52.164;10.530;2023-01-25T14:13:35;2.70;56.40
10245;DHT22;5167;52.164;10.530;2023-01-25T14:16:01;2.70;57.10
10245;DHT22;5167;52.164;10.530;2023-01-25T14:18:33;2.70;56.00
10245;DHT22;5167;52.164;10.530;2023-01-25T14:21:20;2.70;56.00
10245;DHT22;5167;52.164;10.530;2023-01-25T14:23:46;2.60;56.10
10245;DHT22;5167;52.164;10.530;2023-01-25T14:26:22;2.60;55.60
10245;DHT22;5167;52.164;10.530;2023-01-25T14:28:52;2.60;57.10
10245;DHT22;5167;52.164;10.530;2023-01-25T14:31:21;2.60;56.60
10245;DHT22;5167;52.164;10.530;2023-01-25T14:33:47;2.60;57.40
10245;DHT22;5167;52.164;10.530;2023-01-25T14:36:19;2.70;57.10
10245;DHT22;5167;52.164;10.530;2023-01-25T14:38:45;2.60;57.30
10245;DHT22;5167;52.164;10.530;2023-01-25T14:41:18;2.60;57.50
10245;DHT22;5167;52.164;10.530;2023-01-25T14:43:52;2.60;57.90
10245;DHT22;5167;52.164;10.530;2023-01-25T14:48:48;2.70;57.80
10245;DHT22;5167;52.164;10.530;2023-01-25T14:51:25;2.70;57.60
10245;DHT22;5167;52.164;10.530;2023-01-25T14:54:03;2.70;58.00
10245;DHT22;5167;52.164;10.530;2023-01-25T14:56:41;2.80;57.40
10245;DHT22;5167;52.164;10.530;2023-01-25T14:59:28;2.70;57.60
10245;DHT22;5167;52.164;10.530;2023-01-25T15:01:58;2.70;57.70
10245;DHT22;5167;52.164;10.530;2023-01-25T15:04:24;2.80;57.40
10245;DHT22;5167;52.164;10.530;2023-01-25T15:06:52;2.70;57.30
10245;DHT22;5167;52.164;10.530;2023-01-25T15:09:33;2.70;57.50
10245;DHT22;5167;52.164;10.530;2023-01-25T15:12:26;2.60;57.80
10245;DHT22;5167;52.164;10.530;2023-01-25T15:14:53;2.60;57.90
10245;DHT22;5167;52.164;10.530;2023-01-25T15:17:44;2.60;57.70
10245;DHT22;5167;52.164;10.530;2023-01-25T15:20:39;2.50;57.30
10245;DHT22;5167;52.164;10.530;2023-01-25T15:25:54;2.60;58.30
10245;DHT22;5167;52.164;10.530;2023-01-25T15:28:21;2.70;58.20
10245;DHT22;5167;52.164;10.530;2023-01-25T15:30:47;2.70;57.20
10245;DHT22;5167;52.164;10.530;2023-01-25T15:33:18;2.70;57.20
10245;DHT22;5167;52.164;10.530;2023-01-25T15:35:45;2.70;56.70
10245;DHT22;5167;52.164;10.530;2023-01-25T15:38:12;2.70;57.80
10245;DHT22;5167;52.164;10.530;2023-01-25T15:40:38;2.70;57.30
10245;DHT22;5167;52.164;10.530;2023-01-25T15:43:03;2.60;57.40
10245;DHT22;5167;52.164;10.530;2023-01-25T15:45:29;2.60;57.50
10245;DHT22;5167;52.164;10.530;2023-01-25T15:47:54;2.60;57.70
10245;DHT22;5167;52.164;10.530;2023-01-25T15:50:20;2.60;57.90
10245;DHT22;5167;52.164;10.530;2023-01-25T15:52:46;2.60;57.50
10245;DHT22;5167;52.164;10.530;2023-01-25T15:55:12;2.60;57.50
10245;DHT22;5167;52.164;10.530;2023-01-25T15:57:39;2.60;57.40
10245;DHT22;5167;52.164;10.530;2023-01-25T16:00:06;2.60;58.00
10245;DHT22;5167;52.164;10.530;2023-01-25T16:02:31;2.60;57.30
10245;DHT22;5167;52.164;10.530;2023-01-25T16:04:57;2.60;57.40
10245;DHT22;5167;52.164;10.530;2023-01-25T16:07:28;2.50;56.90
10245;DHT22;5167;52.164;10.530;2023-01-25T16:09:53;2.60;57.00
10245;DHT22;5167;52.164;10.530;2023-01-25T16:12:19;2.60;57.00
10245;DHT22;5167;52.164;10.530;2023-01-25T16:14:46;2.50;57.10
10245;DHT22;5167;52.164;10.530;2023-01-25T16:17:17;2.50;57.90
10245;DHT22;5167;52.164;10.530;2023-01-25T16:19:43;2.40;57.80
10245;DHT22;5167;52.164;10.530;2023-01-25T16:22:13;2.40;58.10
10245;DHT22;5167;52.164;10.530;2023-01-25T16:24:39;2.50;58.00
10245;DHT22;5167;52.164;10.530;2023-01-25T16:27:07;2.50;58.50
10245;DHT22;5167;52.164;10.530;2023-01-25T16:29:37;2.50;58.00
10245;DHT22;5167;52.164;10.530;2023-01-25T16:32:03;2.50;58.50
10245;DHT22;5167;52.164;10.530;2023-01-25T16:34:29;2.60;58.40
10245;DHT22;5167;52.164;10.530;2023-01-25T16:36:54;2.60;58.90
10245;DHT22;5167;52.164;10.530;2023-01-25T16:39:23;2.60;58.60
10245;DHT22;5167;52.164;10.530;2023-01-25T16:41:49;2.60;58.30
10245;DHT22;5167;52.164;10.530;2023-01-25T16:44:15;2.50;57.90
10245;DHT22;5167;52.164;10.530;2023-01-25T16:46:41;2.50;57.60
10245;DHT22;5167;52.164;10.530;2023-01-25T16:49:09;2.50;58.00
10245;DHT22;5167;52.164;10.530;2023-01-25T16:51:38;2.40;57.90
10245;DHT22;5167;52.164;10.530;2023-01-25T16:54:04;2.40;58.30
10245;DHT22;5167;52.164;10.530;2023-01-25T16:56:31;2.50;58.00
10245;DHT22;5167;52.164;10.530;2023-01-25T16:59:00;2.50;58.10
10245;DHT22;5167;52.164;10.530;2023-01-25T17:01:26;2.40;57.50
10245;DHT22;5167;52.164;10.530;2023-01-25T17:03:53;2.50;57.60
10245;DHT22;5167;52.164;10.530;2023-01-25T17:06:24;2.50;57.50
10245;DHT22;5167;52.164;10.530;2023-01-25T17:08:50;2.40;57.90
10245;DHT22;5167;52.164;10.530;2023-01-25T17:11:17;2.40;57.50
10245;DHT22;5167;52.164;10.530;2023-01-25T17:13:50;2.50;57.40
10245;DHT22;5167;52.164;10.530;2023-01-25T17:16:17;2.50;57.80
10245;DHT22;5167;52.164;10.530;2023-01-25T17:18:43;2.50;57.30
10245;DHT22;5167;52.164;10.530;2023-01-25T17:21:09;2.40;56.30
10245;DHT22;5167;52.164;10.530;2023-01-25T17:23:37;2.40;56.80
10245;DHT22;5167;52.164;10.530;2023-01-25T17:26:08;2.30;57.50
10245;DHT22;5167;52.164;10.530;2023-01-25T17:28:33;2.40;57.80
10245;DHT22;5167;52.164;10.530;2023-01-25T17:31:00;2.30;58.00
10245;DHT22;5167;52.164;10.530;2023-01-25T17:33:26;2.30;58.20
10245;DHT22;5167;52.164;10.530;2023-01-25T17:35:51;2.40;58.30
10245;DHT22;5167;52.164;10.530;2023-01-25T17:38:25;2.30;58.00
10245;DHT22;5167;52.164;10.530;2023-01-25T17:40:51;2.40;58.60